Time;durP1;ratioP1;P1;durP2;ratioP2;P2;SDS_P1;SDS_P2;PMS_P1;PMS_P2;Temp;Humidity;BMP_temperature;BMP_pressure;BME280_temperature;BME280_humidity;BME280_pressure;Samples;Min_cycle;Max_cycle;Signal;HPM_P1;HPM_P2
2021/10/22 00:01:01;;;;;;;;;;;;;;;;;;2083767;28;1511;-79
2021/10/22 00:02:02;;;;;;;;;;;;;;;;;;2067849;28;1769;-79
2021/10/22 00:03:06;;;;;;;;;;;;;;;;;;2067156;28;2067;-79
2021/10/22 00:04:06;;;;;;;;;;;;;;;;;;2075799;28;1257;-80
2021/10/22 00:05:08;;;;;;;;;;;;;;;;;;2075875;28;1955;-79
2021/10/22 00:06:09;;;;;;;;;;;;;;;;;;2081484;28;2118;-79
2021/10/22 00:07:11;;;;;;;;;;;;;;;;;;2083392;28;1686;-80
2021/10/22 00:08:11;;;;;;;;;;;;;;;;;;2075243;28;1774;-79
2021/10/22 00:09:14;;;;;;;;;;;;;;;;;;2075266;28;1312;-80
2021/10/22 00:10:15;;;;;;;;;;;;;;;;;;2067708;28;1490;-79
2021/10/22 00:11:17;;;;;;;;;;;;;;;;;;2067502;28;1383;-80
2021/10/22 00:12:18;;;;;;;;;;;;;;;;;;2069481;28;2072;-80
2021/10/22 00:13:20;;;;;;;;;;;;;;;;;;2075960;28;1776;-80
2021/10/22 00:14:21;;;;;;;;;;;;;;;;;;2084091;28;1532;-80
2021/10/22 00:15:22;;;;;;;;;;;;;;;;;;2075103;28;1612;-79
2021/10/22 00:16:24;;;;;;;;;;;;;;;;;;2083681;28;1714;-80
2021/10/22 00:17:26;;;;;;;;;;;;;;;;;;2075764;28;1702;-80
2021/10/22 00:18:31;;;;;;;;;;;;;;;;;;2075833;28;1967;-80
2021/10/22 00:19:33;;;;;;;;;;;;;;;;;;2075574;28;1647;-80
2021/10/22 00:20:34;;;;;;;;;;;;;;;;;;2076928;28;2146;-81
2021/10/22 00:21:36;;;;;;;;;;;;;;;;;;2091280;28;1691;-79
2021/10/22 00:22:37;;;;;;;;;;;;;;;;;;2075328;28;1709;-80
2021/10/22 00:23:38;;;;;;;;;;;;;;;;;;2075588;28;1524;-80
2021/10/22 00:24:39;;;;;;;;;;;;;;;;;;2083998;28;1573;-80
2021/10/22 00:25:41;;;;;;;;;;;;;;;;;;2083802;28;1581;-80
2021/10/22 00:26:42;;;;;;;;;;;;;;;;;;2075863;28;1528;-80
2021/10/22 00:27:44;;;;;;;;;;;;;;;;;;2083623;28;2034;-80
2021/10/22 00:28:45;;;;;;;;;;;;;;;;;;2083846;28;1545;-80
2021/10/22 00:29:47;;;;;;;;;;;;;;;;;;2083806;28;1418;-80
2021/10/22 00:30:47;;;;;;;;;;;;;;;;;;2083980;28;1541;-80
2021/10/22 00:31:49;;;;;;;;;;;;;;;;;;2083751;28;1675;-80
2021/10/22 00:32:50;;;;;;;;;;;;;;;;;;2083980;28;1180;-80
2021/10/22 00:33:53;;;;;;;;;;;;;;;;;;2083861;28;1587;-80
2021/10/22 00:34:54;;;;;;;;;;;;;;;;;;2075609;28;1499;-80
2021/10/22 00:35:56;;;;;;;;;;;;;;;;;;2075000;28;1733;-80
2021/10/22 00:36:58;;;;;;;;;;;;;;;;;;2083295;28;1677;-80
2021/10/22 00:38:00;;;;;;;;;;;;;;;;;;2068076;28;1814;-79
2021/10/22 00:39:01;;;;;;;;;;;;;;;;;;2067292;28;1914;-80
2021/10/22 00:40:03;;;;;;;;;;;;;;;;;;2067575;28;1574;-80
2021/10/22 00:41:04;;;;;;;;;;;;;;;;;;2075460;28;923;-80
2021/10/22 00:42:07;;;;;;;;;;;;;;;;;;2075828;28;1736;-80
2021/10/22 00:43:09;;;;;;;;;;;;;;;;;;2067546;28;1492;-80
2021/10/22 00:44:10;;;;;;;;;;;;;;;;;;2067532;28;1525;-80
2021/10/22 00:45:12;;;;;;;;;;;;;;;;;;2067322;28;1576;-80
2021/10/22 00:46:13;;;;;;;;;;;;;;;;;;2075554;28;1565;-80
2021/10/22 00:47:16;;;;;;;;;;;;;;;;;;2075184;28;2104;-80
2021/10/22 00:48:19;;;;;;;;;;;;;;;;;;2083351;28;1679;-80
2021/10/22 00:49:24;;;;;;;;;;;;;;;;;;2083339;28;861;-80
2021/10/22 00:50:24;;;;;;;;;;;;;;;;;;2075561;28;1518;-80
2021/10/22 00:51:28;;;;;;;;;;;;;;;;;;2083020;28;2000;-79
2021/10/22 00:52:29;;;;;;;;;;;;;;;;;;2082967;28;1721;-80
2021/10/22 00:53:31;;;;;;;;;;;;;;;;;;2083473;28;1258;-79
2021/10/22 00:54:33;;;;;;;;;;;;;;;;;;2075318;28;1663;-79
2021/10/22 00:55:34;;;;;;;;;;;;;;;;;;2075759;28;2009;-79
2021/10/22 00:56:36;;;;;;;;;;;;;;;;;;2075458;28;1723;-79
2021/10/22 00:57:36;;;;;;;;;;;;;;;;;;2075236;28;1899;-79
2021/10/22 00:58:40;;;;;;;;;;;;;;;;;;2083594;28;1979;-79
2021/10/22 00:59:43;;;;;;;;;;;;;;;;;;2091844;28;1786;-79
2021/10/22 01:00:44;;;;;;;;;;;;;;;;;;2081300;28;1695;-79
2021/10/22 01:01:45;;;;;;;;;;;;;;;;;;2067147;28;1295;-79
2021/10/22 01:02:47;;;;;;;;;;;;;;;;;;2067211;28;1245;-79
2021/10/22 01:03:48;;;;;;;;;;;;;;;;;;2067117;28;1407;-79
2021/10/22 01:04:53;;;;;;;;;;;;;;;;;;2075327;28;1703;-79
2021/10/22 01:05:54;;;;;;;;;;;;;;;;;;2075374;28;1231;-79
2021/10/22 01:06:56;;;;;;;;;;;;;;;;;;2083313;28;857;-79
2021/10/22 01:07:56;;;;;;;;;;;;;;;;;;2083386;28;1684;-79
2021/10/22 01:09:00;;;;;;;;;;;;;;;;;;2083539;28;1480;-81
2021/10/22 01:10:01;;;;;;;;;;;;;;;;;;2075619;28;1280;-79
2021/10/22 01:11:04;;;;;;;;;;;;;;;;;;2083114;28;1691;-79
2021/10/22 01:12:05;;;;;;;;;;;;;;;;;;2083622;28;1924;-78
2021/10/22 01:13:06;;;;;;;;;;;;;;;;;;2083062;28;1384;-79
2021/10/22 01:14:08;;;;;;;;;;;;;;;;;;2074955;28;1273;-79
2021/10/22 01:15:10;;;;;;;;;;;;;;;;;;2075144;28;1598;-79
2021/10/22 01:16:11;;;;;;;;;;;;;;;;;;2083351;28;1378;-79
2021/10/22 01:17:33;;;;;;;;;;;;;;;;;;2083118;28;1616;-79
2021/10/22 01:18:34;;;;;;;;;;;;;;;;;;2075129;28;1914;-79
2021/10/22 01:19:36;;;;;;;;;;;;;;;;;;2075181;28;1595;-79
2021/10/22 01:20:38;;;;;;;;;;;;;;;;;;2074946;28;1511;-79
2021/10/22 01:21:40;;;;;;;;;;;;;;;;;;2078250;28;1689;-80
2021/10/22 01:22:42;;;;;;;;;;;;;;;;;;2077934;28;1877;-78
2021/10/22 01:23:44;;;;;;;;;;;;;;;;;;2075329;28;1707;-79
2021/10/22 01:24:45;;;;;;;;;;;;;;;;;;2083508;28;819;-79
2021/10/22 01:25:47;;;;;;;;;;;;;;;;;;2082923;28;1902;-78
2021/10/22 01:26:48;;;;;;;;;;;;;;;;;;2075134;28;1892;-78
2021/10/22 01:27:50;;;;;;;;;;;;;;;;;;2074328;28;2149;-79
2021/10/22 01:28:51;;;;;;;;;;;;;;;;;;2075070;28;1680;-78
2021/10/22 01:29:52;;;;;;;;;;;;;;;;;;2067101;28;1556;-80
2021/10/22 01:30:54;;;;;;;;;;;;;;;;;;2067514;28;1505;-79
2021/10/22 01:31:55;;;;;;;;;;;;;;;;;;2066886;28;1669;-79
2021/10/22 01:33:00;;;;;;;;;;;;;;;;;;2067646;28;2434;-82
2021/10/22 01:34:01;;;;;;;;;;;;;;;;;;2075401;28;979;-78
2021/10/22 01:35:03;;;;;;;;;;;;;;;;;;2075419;28;1080;-80
2021/10/22 01:36:05;;;;;;;;;;;;;;;;;;2075155;28;1904;-80
2021/10/22 01:37:07;;;;;;;;;;;;;;;;;;2074744;28;1995;-79
2021/10/22 01:38:08;;;;;;;;;;;;;;;;;;2075341;28;1797;-79
2021/10/22 01:39:09;;;;;;;;;;;;;;;;;;2075018;28;1910;-79
2021/10/22 01:40:10;;;;;;;;;;;;;;;;;;2075252;28;1577;-79
2021/10/22 01:41:12;;;;;;;;;;;;;;;;;;2082108;28;1909;-79
2021/10/22 01:42:13;;;;;;;;;;;;;;;;;;2075283;28;1538;-79
2021/10/22 01:43:15;;;;;;;;;;;;;;;;;;2074840;28;1409;-79
2021/10/22 01:44:22;;;;;;;;;;;;;;;;;;2075000;28;1686;-79
2021/10/22 01:45:24;;;;;;;;;;;;;;;;;;2067912;28;1545;-78
2021/10/22 01:46:25;;;;;;;;;;;;;;;;;;2074695;28;1962;-79
2021/10/22 01:47:27;;;;;;;;;;;;;;;;;;2066818;28;1769;-78
2021/10/22 01:48:28;;;;;;;;;;;;;;;;;;2066781;28;1755;-79
2021/10/22 01:49:30;;;;;;;;;;;;;;;;;;2066913;28;1228;-79
2021/10/22 01:50:31;;;;;;;;;;;;;;;;;;2066208;28;1990;-79
2021/10/22 01:51:34;;;;;;;;;;;;;;;;;;2067090;28;927;-79
2021/10/22 01:52:34;;;;;;;;;;;;;;;;;;2074808;28;1419;-79
2021/10/22 01:53:36;;;;;;;;;;;;;;;;;;2066855;28;1704;-78
2021/10/22 01:54:37;;;;;;;;;;;;;;;;;;2066906;28;1201;-79
2021/10/22 01:55:39;;;;;;;;;;;;;;;;;;2067451;28;1894;-80
2021/10/22 01:56:39;;;;;;;;;;;;;;;;;;2074582;28;1509;-79
2021/10/22 01:57:42;;;;;;;;;;;;;;;;;;2079745;28;1515;-79
2021/10/22 01:58:42;;;;;;;;;;;;;;;;;;2083430;28;792;-79
2021/10/22 01:59:46;;;;;;;;;;;;;;;;;;2082220;28;1923;-79
2021/10/22 02:00:47;;;;;;;;;;;;;;;;;;2075029;28;1859;-79
2021/10/22 02:01:49;;;;;;;;;;;;;;;;;;2074868;28;1671;-79
2021/10/22 02:02:50;;;;;;;;;;;;;;;;;;2075433;28;797;-79
2021/10/22 02:03:52;;;;;;;;;;;;;;;;;;2074812;28;1308;-79
2021/10/22 02:04:52;;;;;;;;;;;;;;;;;;2066386;28;1669;-79
2021/10/22 02:05:55;;;;;;;;;;;;;;;;;;2075145;28;1604;-79
2021/10/22 02:06:57;;;;;;;;;;;;;;;;;;2074764;28;1617;-80
2021/10/22 02:07:59;;;;;;;;;;;;;;;;;;2081817;28;1316;-79
2021/10/22 02:09:00;;;;;;;;;;;;;;;;;;2074841;28;1533;-80
2021/10/22 02:10:02;;;;;;;;;;;;;;;;;;2073184;28;1481;-79
2021/10/22 02:11:02;;;;;;;;;;;;;;;;;;2074404;28;2033;-80
2021/10/22 02:12:04;;;;;;;;;;;;;;;;;;2083385;28;1306;-80
2021/10/22 02:13:05;;;;;;;;;;;;;;;;;;2083190;28;1501;-79
2021/10/22 02:14:07;;;;;;;;;;;;;;;;;;2083135;28;1653;-80
2021/10/22 02:15:09;;;;;;;;;;;;;;;;;;2082810;28;1645;-79
2021/10/22 02:16:11;;;;;;;;;;;;;;;;;;2068940;28;2057;-79
2021/10/22 02:17:11;;;;;;;;;;;;;;;;;;2066604;28;1489;-80
2021/10/22 02:18:13;;;;;;;;;;;;;;;;;;2074905;28;1239;-79
2021/10/22 02:19:14;;;;;;;;;;;;;;;;;;2091151;28;1983;-79
2021/10/22 02:20:16;;;;;;;;;;;;;;;;;;2075085;28;905;-79
2021/10/22 02:21:19;;;;;;;;;;;;;;;;;;2074382;28;1690;-79
2021/10/22 02:22:22;;;;;;;;;;;;;;;;;;2066636;28;1549;-80
2021/10/22 02:23:23;;;;;;;;;;;;;;;;;;2074875;28;807;-78
2021/10/22 02:24:25;;;;;;;;;;;;;;;;;;2074593;28;1523;-79
2021/10/22 02:25:25;;;;;;;;;;;;;;;;;;2074840;28;912;-81
2021/10/22 02:26:27;;;;;;;;;;;;;;;;;;2074797;28;1534;-79
2021/10/22 02:27:28;;;;;;;;;;;;;;;;;;2074601;28;1696;-80
2021/10/22 02:28:31;;;;;;;;;;;;;;;;;;2074715;28;1702;-79
2021/10/22 02:29:32;;;;;;;;;;;;;;;;;;2074261;28;1681;-79
2021/10/22 02:30:33;;;;;;;;;;;;;;;;;;2075153;28;1303;-80
2021/10/22 02:31:34;;;;;;;;;;;;;;;;;;2074604;28;1670;-79
2021/10/22 02:32:36;;;;;;;;;;;;;;;;;;2075015;28;1627;-79
2021/10/22 02:33:37;;;;;;;;;;;;;;;;;;2082904;28;1554;-79
2021/10/22 02:34:38;;;;;;;;;;;;;;;;;;2082992;28;1820;-79
2021/10/22 02:35:40;;;;;;;;;;;;;;;;;;2080758;28;2099;-79
2021/10/22 02:36:42;;;;;;;;;;;;;;;;;;2066560;28;1640;-79
2021/10/22 02:37:46;;;;;;;;;;;;;;;;;;2058520;28;1714;-79
2021/10/22 02:38:48;;;;;;;;;;;;;;;;;;2067115;28;1288;-78
2021/10/22 02:39:48;;;;;;;;;;;;;;;;;;2073140;28;1983;-79
2021/10/22 02:40:50;;;;;;;;;;;;;;;;;;2074362;28;2005;-79
2021/10/22 02:41:51;;;;;;;;;;;;;;;;;;2074470;28;1612;-79
2021/10/22 02:42:53;;;;;;;;;;;;;;;;;;2074119;28;1435;-79
2021/10/22 02:43:53;;;;;;;;;;;;;;;;;;2066321;28;1656;-80
2021/10/22 02:44:55;;;;;;;;;;;;;;;;;;2066678;28;1573;-80
2021/10/22 02:45:56;;;;;;;;;;;;;;;;;;2082662;28;1709;-79
2021/10/22 02:46:58;;;;;;;;;;;;;;;;;;2082741;28;1699;-82
2021/10/22 02:47:59;;;;;;;;;;;;;;;;;;2074809;28;1592;-80
2021/10/22 02:49:01;;;;;;;;;;;;;;;;;;2074388;28;1663;-80
2021/10/22 02:50:01;;;;;;;;;;;;;;;;;;2082726;28;1755;-80
2021/10/22 02:51:03;;;;;;;;;;;;;;;;;;2082375;28;1894;-79
2021/10/22 02:52:04;;;;;;;;;;;;;;;;;;2082831;28;1617;-80
2021/10/22 02:53:08;;;;;;;;;;;;;;;;;;2073929;28;1666;-80
2021/10/22 02:54:09;;;;;;;;;;;;;;;;;;2066703;28;1416;-79
2021/10/22 02:55:11;;;;;;;;;;;;;;;;;;2074576;28;1589;-79
2021/10/22 02:56:11;;;;;;;;;;;;;;;;;;2082753;28;1715;-80
2021/10/22 02:57:13;;;;;;;;;;;;;;;;;;2074348;28;2062;-80
2021/10/22 02:58:14;;;;;;;;;;;;;;;;;;2074686;28;1619;-79
2021/10/22 02:59:16;;;;;;;;;;;;;;;;;;2074301;28;1973;-79
2021/10/22 03:00:18;;;;;;;;;;;;;;;;;;2074788;28;1555;-80
2021/10/22 03:01:18;;;;;;;;;;;;;;;;;;2082153;28;1845;-80
2021/10/22 03:02:20;;;;;;;;;;;;;;;;;;2074374;28;1527;-79
2021/10/22 03:03:22;;;;;;;;;;;;;;;;;;2066303;28;1327;-79
2021/10/22 03:04:23;;;;;;;;;;;;;;;;;;2074126;28;1595;-79
2021/10/22 03:05:24;;;;;;;;;;;;;;;;;;2074687;28;1382;-79
2021/10/22 03:06:27;;;;;;;;;;;;;;;;;;2074741;28;1683;-79
2021/10/22 03:07:28;;;;;;;;;;;;;;;;;;2077300;28;1973;-79
2021/10/22 03:08:32;;;;;;;;;;;;;;;;;;2066663;28;1663;-79
2021/10/22 03:09:32;;;;;;;;;;;;;;;;;;2074174;28;1370;-79
2021/10/22 03:10:34;;;;;;;;;;;;;;;;;;2073003;28;1583;-79
2021/10/22 03:11:35;;;;;;;;;;;;;;;;;;2074611;28;923;-79
2021/10/22 03:12:37;;;;;;;;;;;;;;;;;;2074627;28;1712;-79
2021/10/22 03:13:38;;;;;;;;;;;;;;;;;;2066402;28;2005;-79
2021/10/22 03:14:40;;;;;;;;;;;;;;;;;;2074435;28;1692;-79
2021/10/22 03:15:41;;;;;;;;;;;;;;;;;;2082330;28;2094;-79
2021/10/22 03:16:43;;;;;;;;;;;;;;;;;;2082719;28;1325;-78
2021/10/22 03:17:44;;;;;;;;;;;;;;;;;;2079199;28;2038;-79
2021/10/22 03:18:47;;;;;;;;;;;;;;;;;;2073926;28;1477;-78
2021/10/22 03:19:48;;;;;;;;;;;;;;;;;;2082478;28;1917;-79
2021/10/22 03:20:50;;;;;;;;;;;;;;;;;;2087456;28;2058;-79
2021/10/22 03:21:51;;;;;;;;;;;;;;;;;;2074275;28;1206;-79
2021/10/22 03:22:53;;;;;;;;;;;;;;;;;;2072389;28;2134;-79
2021/10/22 03:23:56;;;;;;;;;;;;;;;;;;2082078;28;1730;-79
2021/10/22 03:24:58;;;;;;;;;;;;;;;;;;2082461;28;1745;-81
2021/10/22 03:25:59;;;;;;;;;;;;;;;;;;2074081;28;1902;-79
2021/10/22 03:27:00;;;;;;;;;;;;;;;;;;2066232;28;1587;-80
2021/10/22 03:28:04;;;;;;;;;;;;;;;;;;2082099;28;2014;-79
2021/10/22 03:29:06;;;;;;;;;;;;;;;;;;2090713;28;901;-79
2021/10/22 03:30:07;;;;;;;;;;;;;;;;;;2082708;28;1696;-79
2021/10/22 03:31:10;;;;;;;;;;;;;;;;;;2074208;28;2113;-79
2021/10/22 03:32:12;;;;;;;;;;;;;;;;;;2074150;28;1583;-80
2021/10/22 03:33:14;;;;;;;;;;;;;;;;;;2074271;28;1724;-79
2021/10/22 03:34:15;;;;;;;;;;;;;;;;;;2074178;28;1690;-79
2021/10/22 03:35:17;;;;;;;;;;;;;;;;;;2074380;28;1541;-80
2021/10/22 03:36:19;;;;;;;;;;;;;;;;;;2080540;28;1710;-79
2021/10/22 03:37:20;;;;;;;;;;;;;;;;;;2082462;28;1468;-79
2021/10/22 03:38:22;;;;;;;;;;;;;;;;;;2082477;28;1800;-79
2021/10/22 03:39:26;;;;;;;;;;;;;;;;;;2074259;28;1258;-79
2021/10/22 03:40:27;;;;;;;;;;;;;;;;;;2074472;28;2147;-79
2021/10/22 03:41:28;;;;;;;;;;;;;;;;;;2074370;28;1539;-79
2021/10/22 03:42:30;;;;;;;;;;;;;;;;;;2077620;28;2065;-79
2021/10/22 03:43:33;;;;;;;;;;;;;;;;;;2082869;28;869;-79
2021/10/22 03:44:35;;;;;;;;;;;;;;;;;;2082574;28;1813;-79
2021/10/22 03:45:35;;;;;;;;;;;;;;;;;;2073986;28;2010;-80
2021/10/22 03:46:38;;;;;;;;;;;;;;;;;;2074308;28;1555;-80
2021/10/22 03:47:38;;;;;;;;;;;;;;;;;;2074348;28;1865;-80
2021/10/22 03:48:40;;;;;;;;;;;;;;;;;;2074613;28;1581;-79
2021/10/22 03:49:41;;;;;;;;;;;;;;;;;;2082651;28;1286;-79
2021/10/22 03:50:43;;;;;;;;;;;;;;;;;;2090613;28;1338;-79
2021/10/22 03:51:43;;;;;;;;;;;;;;;;;;2082604;28;943;-79
2021/10/22 03:52:46;;;;;;;;;;;;;;;;;;2068680;28;1665;-79
2021/10/22 03:53:46;;;;;;;;;;;;;;;;;;2066459;28;831;-80
2021/10/22 03:54:49;;;;;;;;;;;;;;;;;;2082636;28;1468;-80
2021/10/22 03:55:50;;;;;;;;;;;;;;;;;;2077041;28;1975;-80
2021/10/22 03:56:52;;;;;;;;;;;;;;;;;;2074604;28;1676;-80
2021/10/22 03:57:53;;;;;;;;;;;;;;;;;;2072216;28;1528;-79
2021/10/22 03:58:55;;;;;;;;;;;;;;;;;;2082405;28;1649;-80
2021/10/22 03:59:56;;;;;;;;;;;;;;;;;;2076653;28;1915;-80
2021/10/22 04:00:57;;;;;;;;;;;;;;;;;;2088224;28;1366;-80
2021/10/22 04:01:59;;;;;;;;;;;;;;;;;;2082421;28;1545;-80
2021/10/22 04:03:01;;;;;;;;;;;;;;;;;;2074093;28;1679;-80
2021/10/22 04:04:02;;;;;;;;;;;;;;;;;;2082655;28;867;-80
2021/10/22 04:05:07;;;;;;;;;;;;;;;;;;2082232;28;1379;-80
2021/10/22 04:06:07;;;;;;;;;;;;;;;;;;2082488;28;824;-80
2021/10/22 04:07:10;;;;;;;;;;;;;;;;;;2081759;28;1978;-81
2021/10/22 04:08:11;;;;;;;;;;;;;;;;;;2079012;28;1522;-80
2021/10/22 04:09:15;;;;;;;;;;;;;;;;;;2073792;28;1522;-81
2021/10/22 04:10:18;;;;;;;;;;;;;;;;;;2072437;28;1518;-79
2021/10/22 04:11:19;;;;;;;;;;;;;;;;;;2081959;28;2012;-81
2021/10/22 04:12:20;;;;;;;;;;;;;;;;;;2082193;28;1929;-81
2021/10/22 04:13:24;;;;;;;;;;;;;;;;;;2070325;28;1593;-81
2021/10/22 04:14:25;;;;;;;;;;;;;;;;;;2080936;28;1258;-82
2021/10/22 04:15:27;;;;;;;;;;;;;;;;;;2087784;28;1959;-82
2021/10/22 04:16:28;;;;;;;;;;;;;;;;;;2074135;28;1185;-81
2021/10/22 04:17:30;;;;;;;;;;;;;;;;;;2082049;28;1219;-81
2021/10/22 04:18:31;;;;;;;;;;;;;;;;;;2082036;28;1367;-81
2021/10/22 04:19:33;;;;;;;;;;;;;;;;;;2073851;28;1172;-82
2021/10/22 04:20:34;;;;;;;;;;;;;;;;;;2082209;28;1983;-80
2021/10/22 04:21:36;;;;;;;;;;;;;;;;;;2090359;28;1405;-82
2021/10/22 04:22:37;;;;;;;;;;;;;;;;;;2090079;28;1683;-82
2021/10/22 04:23:39;;;;;;;;;;;;;;;;;;2091683;28;1627;-82
2021/10/22 04:24:39;;;;;;;;;;;;;;;;;;2083928;28;1517;-81
2021/10/22 04:25:43;;;;;;;;;;;;;;;;;;2078373;28;1686;-79
2021/10/22 04:26:44;;;;;;;;;;;;;;;;;;2083896;28;1705;-79
2021/10/22 04:27:46;;;;;;;;;;;;;;;;;;2091131;28;1949;-79
2021/10/22 04:28:47;;;;;;;;;;;;;;;;;;2083639;28;1274;-78
2021/10/22 04:29:48;;;;;;;;;;;;;;;;;;2091655;28;1703;-79
2021/10/22 04:30:49;;;;;;;;;;;;;;;;;;2096718;28;1764;-79
2021/10/22 04:31:51;;;;;;;;;;;;;;;;;;2088536;28;1664;-79
2021/10/22 04:32:52;;;;;;;;;;;;;;;;;;2085448;28;2094;-79
2021/10/22 04:33:54;;;;;;;;;;;;;;;;;;2089015;28;1619;-79
2021/10/22 04:34:54;;;;;;;;;;;;;;;;;;2083504;28;1650;-80
2021/10/22 04:35:57;;;;;;;;;;;;;;;;;;2078556;28;1837;-79
2021/10/22 04:37:09;;;;;;;;;;;;;;;;;;2080052;28;1751;-81
2021/10/22 04:40:52;;;;;;;;;;;;;;;;;;2077664;28;1902;-78
2021/10/22 04:41:52;;;;;;;;;;;;;;;;;;2083351;28;911;-79
2021/10/22 04:42:54;;;;;;;;;;;;;;;;;;2074792;28;1601;-80
2021/10/22 04:43:55;;;;;;;;;;;;;;;;;;2067051;28;1692;-79
2021/10/22 04:44:57;;;;;;;;;;;;;;;;;;2075687;28;1600;-78
2021/10/22 04:45:58;;;;;;;;;;;;;;;;;;2083744;28;1809;-78
2021/10/22 04:46:59;;;;;;;;;;;;;;;;;;2083587;28;1667;-79
2021/10/22 04:48:02;;;;;;;;;;;;;;;;;;2091150;28;2064;-78
2021/10/22 04:49:02;;;;;;;;;;;;;;;;;;2091794;28;1223;-78
2021/10/22 04:50:05;;;;;;;;;;;;;;;;;;2091202;28;1563;-79
2021/10/22 04:51:06;;;;;;;;;;;;;;;;;;2091255;28;2006;-79
2021/10/22 04:52:08;;;;;;;;;;;;;;;;;;2091140;28;1853;-79
2021/10/22 04:53:09;;;;;;;;;;;;;;;;;;2090572;28;1639;-79
2021/10/22 04:54:10;;;;;;;;;;;;;;;;;;2082952;28;1640;-79
2021/10/22 04:55:11;;;;;;;;;;;;;;;;;;2091047;28;1552;-79
2021/10/22 04:56:15;;;;;;;;;;;;;;;;;;2090279;28;2026;-79
2021/10/22 04:57:17;;;;;;;;;;;;;;;;;;2081812;28;1814;-78
2021/10/22 04:58:18;;;;;;;;;;;;;;;;;;2083439;28;1238;-79
2021/10/22 04:59:20;;;;;;;;;;;;;;;;;;2082948;28;1690;-79
2021/10/22 05:00:22;;;;;;;;;;;;;;;;;;2074933;28;1977;-79
2021/10/22 05:01:23;;;;;;;;;;;;;;;;;;2069824;28;1996;-78
2021/10/22 05:02:25;;;;;;;;;;;;;;;;;;2081320;28;1775;-78
2021/10/22 05:03:26;;;;;;;;;;;;;;;;;;2080263;28;1631;-79
2021/10/22 05:04:27;;;;;;;;;;;;;;;;;;2083516;28;1681;-78
2021/10/22 05:05:28;;;;;;;;;;;;;;;;;;2082993;28;1722;-79
2021/10/22 05:06:30;;;;;;;;;;;;;;;;;;2086095;28;1653;-79
2021/10/22 05:07:30;;;;;;;;;;;;;;;;;;2083647;28;1924;-78
2021/10/22 05:08:32;;;;;;;;;;;;;;;;;;2083189;28;1412;-78
2021/10/22 05:09:33;;;;;;;;;;;;;;;;;;2083275;28;1559;-79
2021/10/22 05:10:34;;;;;;;;;;;;;;;;;;2082209;28;1904;-79
2021/10/22 05:11:36;;;;;;;;;;;;;;;;;;2081682;28;1598;-78
2021/10/22 05:12:39;;;;;;;;;;;;;;;;;;2091606;28;1741;-79
2021/10/22 05:13:39;;;;;;;;;;;;;;;;;;2094191;28;1589;-78
2021/10/22 05:14:41;;;;;;;;;;;;;;;;;;2088305;28;1572;-78
2021/10/22 05:15:43;;;;;;;;;;;;;;;;;;2078913;28;1731;-78
2021/10/22 05:16:44;;;;;;;;;;;;;;;;;;2091642;28;1577;-78
2021/10/22 05:17:45;;;;;;;;;;;;;;;;;;2092952;28;1788;-78
2021/10/22 05:18:46;;;;;;;;;;;;;;;;;;2086285;28;1564;-78
2021/10/22 05:19:48;;;;;;;;;;;;;;;;;;2091588;28;1586;-79
2021/10/22 05:20:50;;;;;;;;;;;;;;;;;;2082707;28;1898;-79
2021/10/22 05:21:50;;;;;;;;;;;;;;;;;;2075014;28;1461;-79
2021/10/22 05:22:53;;;;;;;;;;;;;;;;;;2078117;28;2017;-78
2021/10/22 05:23:53;;;;;;;;;;;;;;;;;;2092534;28;1364;-80
2021/10/22 05:24:55;;;;;;;;;;;;;;;;;;2091415;28;1532;-78
2021/10/22 05:25:56;;;;;;;;;;;;;;;;;;2086064;28;1877;-78
2021/10/22 05:26:59;;;;;;;;;;;;;;;;;;2087411;28;1572;-79
2021/10/22 05:28:00;;;;;;;;;;;;;;;;;;2089165;28;1936;-79
2021/10/22 05:29:01;;;;;;;;;;;;;;;;;;2090531;28;1344;-79
2021/10/22 05:30:02;;;;;;;;;;;;;;;;;;2086648;28;1685;-78
2021/10/22 05:31:04;;;;;;;;;;;;;;;;;;2079856;28;1779;-78
2021/10/22 05:32:05;;;;;;;;;;;;;;;;;;2091224;28;1975;-79
2021/10/22 05:33:07;;;;;;;;;;;;;;;;;;2090990;28;1601;-79
2021/10/22 05:34:08;;;;;;;;;;;;;;;;;;2091740;28;1715;-79
2021/10/22 05:35:10;;;;;;;;;;;;;;;;;;2091191;28;1545;-78
2021/10/22 05:36:11;;;;;;;;;;;;;;;;;;2078102;28;1528;-79
2021/10/22 05:37:13;;;;;;;;;;;;;;;;;;2082683;28;1684;-79
2021/10/22 05:38:14;;;;;;;;;;;;;;;;;;2080936;28;1602;-78
2021/10/22 05:39:16;;;;;;;;;;;;;;;;;;2082816;28;1557;-79
2021/10/22 05:40:17;;;;;;;;;;;;;;;;;;2075256;28;1918;-78
2021/10/22 05:41:19;;;;;;;;;;;;;;;;;;2084555;28;1576;-79
2021/10/22 05:42:22;;;;;;;;;;;;;;;;;;2089012;28;1712;-78
2021/10/22 05:43:24;;;;;;;;;;;;;;;;;;2085888;28;1521;-78
2021/10/22 05:44:24;;;;;;;;;;;;;;;;;;2099331;28;1894;-78
2021/10/22 05:45:26;;;;;;;;;;;;;;;;;;2090913;28;1678;-79
2021/10/22 05:46:27;;;;;;;;;;;;;;;;;;2083238;28;1672;-78
2021/10/22 05:47:29;;;;;;;;;;;;;;;;;;2085955;28;1925;-78
2021/10/22 05:48:30;;;;;;;;;;;;;;;;;;2083106;28;1576;-78
2021/10/22 05:49:31;;;;;;;;;;;;;;;;;;2074798;28;1654;-80
2021/10/22 05:50:32;;;;;;;;;;;;;;;;;;2083315;28;1556;-78
2021/10/22 05:51:34;;;;;;;;;;;;;;;;;;2074635;28;1620;-78
2021/10/22 05:52:34;;;;;;;;;;;;;;;;;;2082706;28;1708;-78
2021/10/22 05:53:36;;;;;;;;;;;;;;;;;;2089257;28;1599;-78
2021/10/22 05:54:37;;;;;;;;;;;;;;;;;;2083247;28;1737;-79
2021/10/22 05:55:39;;;;;;;;;;;;;;;;;;2090056;28;1657;-78
2021/10/22 05:56:40;;;;;;;;;;;;;;;;;;2075047;28;1635;-78
2021/10/22 05:57:43;;;;;;;;;;;;;;;;;;2078194;28;1545;-78
2021/10/22 05:58:44;;;;;;;;;;;;;;;;;;2083425;28;1686;-78
2021/10/22 05:59:46;;;;;;;;;;;;;;;;;;2090869;28;1710;-78
2021/10/22 06:00:48;;;;;;;;;;;;;;;;;;2090724;28;1967;-79
2021/10/22 06:01:49;;;;;;;;;;;;;;;;;;2082922;28;1714;-78
2021/10/22 06:02:53;;;;;;;;;;;;;;;;;;2083645;28;2167;-79
2021/10/22 06:03:54;;;;;;;;;;;;;;;;;;2091393;28;1533;-78
2021/10/22 06:04:56;;;;;;;;;;;;;;;;;;2091261;28;1577;-78
2021/10/22 06:05:57;;;;;;;;;;;;;;;;;;2082485;28;1869;-78
2021/10/22 06:06:58;;;;;;;;;;;;;;;;;;2074279;28;1550;-79
2021/10/22 06:08:00;;;;;;;;;;;;;;;;;;2088502;28;1673;-77
2021/10/22 06:09:02;;;;;;;;;;;;;;;;;;2090959;28;1855;-78
2021/10/22 06:10:04;;;;;;;;;;;;;;;;;;2083175;28;1866;-78
2021/10/22 06:11:10;;;;;;;;;;;;;;;;;;2082527;28;1995;-79
2021/10/22 06:12:13;;;;;;;;;;;;;;;;;;2075778;28;1796;-78
2021/10/22 06:13:15;;;;;;;;;;;;;;;;;;2082618;28;1559;-76
2021/10/22 06:14:17;;;;;;;;;;;;;;;;;;2075348;28;1867;-78
2021/10/22 06:15:18;;;;;;;;;;;;;;;;;;2082913;28;1579;-79
2021/10/22 06:16:19;;;;;;;;;;;;;;;;;;2090834;28;1887;-78
2021/10/22 06:17:20;;;;;;;;;;;;;;;;;;2090506;28;1695;-79
2021/10/22 06:18:22;;;;;;;;;;;;;;;;;;2091373;28;1596;-79
2021/10/22 06:19:26;;;;;;;;;;;;;;;;;;2082947;28;1650;-79
2021/10/22 06:20:31;;;;;;;;;;;;;;;;;;2090500;28;1721;-80
2021/10/22 06:21:40;;;;;;;;;;;;;;;;;;2091144;28;1279;-78
2021/10/22 06:24:10;;;;;;;;;;;;;;;;;;2089427;28;1725;-78
2021/10/22 06:25:13;;;;;;;;;;;;;;;;;;2090811;28;1333;-78
2021/10/22 06:26:14;;;;;;;;;;;;;;;;;;2085329;28;2092;-78
2021/10/22 06:27:15;;;;;;;;;;;;;;;;;;2082284;28;1744;-78
2021/10/22 06:28:18;;;;;;;;;;;;;;;;;;2090914;28;1514;-79
2021/10/22 06:29:19;;;;;;;;;;;;;;;;;;2082901;28;1530;-79
2021/10/22 06:30:22;;;;;;;;;;;;;;;;;;2082924;28;1618;-79
2021/10/22 06:31:24;;;;;;;;;;;;;;;;;;2083533;28;907;-79
2021/10/22 06:32:24;;;;;;;;;;;;;;;;;;2083818;28;868;-79
2021/10/22 06:33:26;;;;;;;;;;;;;;;;;;2082880;28;1653;-79
2021/10/22 06:34:27;;;;;;;;;;;;;;;;;;2090330;28;1616;-79
2021/10/22 06:35:29;;;;;;;;;;;;;;;;;;2082034;28;1698;-79
2021/10/22 06:36:30;;;;;;;;;;;;;;;;;;2082737;28;1433;-78
2021/10/22 06:37:32;;;;;;;;;;;;;;;;;;2082119;28;1815;-78
2021/10/22 06:38:32;;;;;;;;;;;;;;;;;;2079980;28;1515;-78
2021/10/22 06:39:34;;;;;;;;;;;;;;;;;;2083383;28;1480;-79
2021/10/22 06:40:35;;;;;;;;;;;;;;;;;;2087074;28;1738;-79
2021/10/22 06:41:37;;;;;;;;;;;;;;;;;;2087219;28;1466;-79
2021/10/22 06:42:38;;;;;;;;;;;;;;;;;;2082882;28;1568;-79
2021/10/22 06:43:42;;;;;;;;;;;;;;;;;;2082576;28;1793;-79
2021/10/22 06:44:43;;;;;;;;;;;;;;;;;;2091221;28;1313;-79
2021/10/22 06:45:45;;;;;;;;;;;;;;;;;;2090427;28;1575;-79
2021/10/22 06:46:45;;;;;;;;;;;;;;;;;;2099163;28;1560;-79
2021/10/22 06:47:48;;;;;;;;;;;;;;;;;;2096958;28;1591;-86
2021/10/22 06:48:49;;;;;;;;;;;;;;;;;;2091366;28;1310;-85
2021/10/22 06:49:51;;;;;;;;;;;;;;;;;;2090258;28;1559;-88
2021/10/22 06:50:54;;;;;;;;;;;;;;;;;;2082703;28;1346;-88
2021/10/22 06:51:59;;;;;;;;;;;;;;;;;;2091231;28;1383;-88
2021/10/22 06:53:00;;;;;;;;;;;;;;;;;;2082458;28;1483;-76
2021/10/22 06:54:02;;;;;;;;;;;;;;;;;;2073354;28;1719;-76
2021/10/22 06:55:04;;;;;;;;;;;;;;;;;;2090016;28;1805;-76
2021/10/22 06:56:06;;;;;;;;;;;;;;;;;;2081037;28;2031;-76
2021/10/22 06:57:07;;;;;;;;;;;;;;;;;;2082660;28;1874;-77
2021/10/22 06:58:09;;;;;;;;;;;;;;;;;;2090621;28;1209;-76
2021/10/22 06:59:12;;;;;;;;;;;;;;;;;;2082702;28;1486;-77
2021/10/22 07:00:14;;;;;;;;;;;;;;;;;;2090873;28;1714;-76
2021/10/22 07:01:14;;;;;;;;;;;;;;;;;;2084846;28;1922;-77
2021/10/22 07:02:16;;;;;;;;;;;;;;;;;;2082263;28;1862;-75
2021/10/22 07:03:19;;;;;;;;;;;;;;;;;;2090449;28;930;-75
2021/10/22 07:04:21;;;;;;;;;;;;;;;;;;2090077;28;1549;-75
2021/10/22 07:07:59;;;;;;;;;;;;;;;;;;2083268;28;1980;-76
2021/10/22 07:09:00;;;;;;;;;;;;;;;;;;2084467;28;1527;-76
2021/10/22 07:10:01;;;;;;;;;;;;;;;;;;2086666;28;1551;-76
2021/10/22 07:11:02;;;;;;;;;;;;;;;;;;2087350;28;1676;-76
2021/10/22 07:12:04;;;;;;;;;;;;;;;;;;2094510;28;1459;-76
2021/10/22 07:13:06;;;;;;;;;;;;;;;;;;2098379;28;1813;-76
2021/10/22 07:14:08;;;;;;;;;;;;;;;;;;2096195;28;1718;-77
2021/10/22 07:15:10;;;;;;;;;;;;;;;;;;2090142;28;1562;-76
2021/10/22 07:16:12;;;;;;;;;;;;;;;;;;2081855;28;1956;-76